首页
METAR-TAF:

METAR-TAF

机场 :

Bainbridge, 喬治亞, 美国

纬度: 30-58N, 经度: 084-38W, 海拔: 43米

当前天气观测

该预报发布于43分钟前的15:35 UTC
风速4节,风向东转东南
温度 12°C
湿度 67%
气压 1022 hPa
能見度: 16.1公里

METAR: KBGE 131535Z AUTO 11004KT 10SM 12/06 A3018 RMK AO2 PWINO

时间: 11:18 (16:18 UTC)


TAF: 丢失

超过4000个机场的气象观测和天气预报(METAR&TAF报告)。

可查询的气象台以黄色和红色小点在地图上表示。

将鼠标移到小点上方,可查看气象台名称。

然后点击查看天气观测和预报。

如需切换地图:点击带黑十字的绿色按钮放大地图;点击带横线的绿色按钮缩小地图;或者点击绿色箭头查看邻近地区的地图。


METAR-TAF: